createdAt,value
2018-09-24T00:00:22.708Z,0
2018-09-24T00:00:54.743Z,0
2018-09-24T00:01:26.779Z,0
2018-09-24T00:01:58.840Z,0
2018-09-24T00:02:30.887Z,0
2018-09-24T00:03:02.973Z,0
2018-09-24T00:03:35.010Z,0
2018-09-24T00:04:07.736Z,0
2018-09-24T00:04:39.724Z,0
2018-09-24T00:05:11.884Z,0
2018-09-24T00:05:43.980Z,0
2018-09-24T00:06:16.027Z,0
2018-09-24T00:06:48.070Z,0
2018-09-24T00:07:20.123Z,0
2018-09-24T00:07:52.202Z,0
2018-09-24T00:08:24.214Z,0
2018-09-24T00:08:56.355Z,0
2018-09-24T00:09:28.432Z,0
2018-09-24T00:10:00.469Z,0
2018-09-24T00:10:32.505Z,0
2018-09-24T00:11:04.554Z,0
2018-09-24T00:11:36.629Z,0
2018-09-24T00:12:08.731Z,0
2018-09-24T00:12:40.730Z,0
2018-09-24T00:13:12.791Z,0
2018-09-24T00:13:44.820Z,0
2018-09-24T00:14:16.995Z,0
2018-09-24T00:14:49.164Z,0
2018-09-24T00:15:21.306Z,0
2018-09-24T00:15:53.370Z,0
2018-09-24T00:16:25.410Z,0
2018-09-24T00:16:57.937Z,0
2018-09-24T00:17:29.997Z,0
2018-09-24T00:18:02.039Z,0
2018-09-24T00:18:34.088Z,0
2018-09-24T00:19:06.167Z,0
2018-09-24T00:19:38.210Z,0
2018-09-24T00:20:10.266Z,0
2018-09-24T00:20:42.314Z,0
2018-09-24T00:21:14.355Z,0
2018-09-24T00:21:46.392Z,0
2018-09-24T00:22:18.432Z,0
2018-09-24T00:22:50.488Z,0
2018-09-24T00:23:22.525Z,0
2018-09-24T00:23:54.540Z,0
2018-09-24T00:24:26.605Z,0
2018-09-24T00:24:58.649Z,0
2018-09-24T00:25:30.792Z,0
2018-09-24T00:26:02.838Z,0
2018-09-24T00:26:34.893Z,0
2018-09-24T00:27:06.950Z,0
2018-09-24T00:27:39.019Z,0
2018-09-24T00:28:12.026Z,0
2018-09-24T00:28:44.063Z,0
2018-09-24T00:29:16.101Z,0
2018-09-24T00:29:48.127Z,0
2018-09-24T00:30:20.186Z,0
2018-09-24T00:30:52.218Z,0
2018-09-24T00:31:24.272Z,0
2018-09-24T00:31:56.378Z,0
2018-09-24T00:32:28.406Z,0
2018-09-24T00:33:00.437Z,0
2018-09-24T00:33:32.548Z,0
2018-09-24T00:34:04.587Z,0
2018-09-24T00:34:36.665Z,0
2018-09-24T00:35:08.701Z,0
2018-09-24T00:35:40.742Z,0
2018-09-24T00:36:12.818Z,0
2018-09-24T00:36:44.883Z,0
2018-09-24T00:37:16.914Z,0
2018-09-24T00:37:48.952Z,0
2018-09-24T00:38:21.008Z,0
2018-09-24T00:38:53.018Z,0
2018-09-24T00:39:25.109Z,0
2018-09-24T00:39:57.229Z,0
2018-09-24T00:40:29.279Z,0
2018-09-24T00:41:01.355Z,0
2018-09-24T00:41:33.402Z,0
2018-09-24T00:42:05.465Z,0
2018-09-24T00:42:37.627Z,0
2018-09-24T00:43:09.766Z,0
2018-09-24T00:43:41.832Z,0
2018-09-24T00:44:13.899Z,0
2018-09-24T00:44:45.968Z,0
2018-09-24T00:45:18.036Z,0
2018-09-24T00:45:50.173Z,0
2018-09-24T00:46:22.325Z,0
2018-09-24T00:46:54.380Z,0
2018-09-24T00:47:26.393Z,0
2018-09-24T00:47:58.471Z,0
2018-09-24T00:48:30.527Z,0
2018-09-24T00:49:02.508Z,0
2018-09-24T00:49:34.568Z,0
2018-09-24T00:50:06.645Z,0
2018-09-24T00:50:38.703Z,0
2018-09-24T00:51:10.958Z,0
2018-09-24T00:51:43.055Z,0
2018-09-24T00:52:15.068Z,0
2018-09-24T00:52:47.137Z,0
2018-09-24T00:53:19.181Z,0
2018-09-24T00:53:51.216Z,0
2018-09-24T00:54:23.341Z,0
2018-09-24T00:54:55.471Z,0
2018-09-24T00:55:27.504Z,0
2018-09-24T00:55:59.538Z,0
2018-09-24T00:56:31.591Z,0
2018-09-24T00:57:03.725Z,0
2018-09-24T00:57:35.796Z,0
2018-09-24T00:58:07.809Z,0
2018-09-24T00:58:39.896Z,0
2018-09-24T00:59:11.922Z,0
2018-09-24T00:59:44.003Z,0
2018-09-24T01:00:16.044Z,0
2018-09-24T01:00:48.100Z,0
2018-09-24T01:01:20.155Z,0
2018-09-24T01:01:52.223Z,0
2018-09-24T01:02:24.219Z,0
2018-09-24T01:02:56.278Z,0
2018-09-24T01:03:28.424Z,0
2018-09-24T01:04:00.482Z,0
2018-09-24T01:04:32.536Z,0
2018-09-24T01:05:04.582Z,0
2018-09-24T01:05:36.609Z,0
2018-09-24T01:06:08.766Z,0
2018-09-24T01:06:40.834Z,0
2018-09-24T01:07:12.873Z,0
2018-09-24T01:07:45.099Z,0
2018-09-24T01:08:17.163Z,0
2018-09-24T01:08:49.228Z,0
2018-09-24T01:09:21.292Z,0
2018-09-24T01:09:53.363Z,0
2018-09-24T01:10:25.430Z,0
2018-09-24T01:10:57.618Z,0
2018-09-24T01:11:29.710Z,0
2018-09-24T01:12:01.797Z,0
2018-09-24T01:12:33.831Z,0
2018-09-24T01:13:05.899Z,0
2018-09-24T01:13:38.005Z,0
2018-09-24T01:14:10.161Z,0
2018-09-24T01:14:42.254Z,0
2018-09-24T01:15:14.321Z,0
2018-09-24T01:15:46.400Z,0
2018-09-24T01:16:18.475Z,0
2018-09-24T01:16:50.522Z,0
2018-09-24T01:17:22.642Z,0
2018-09-24T01:17:54.695Z,0
2018-09-24T01:18:26.763Z,0
2018-09-24T01:18:58.997Z,0
2018-09-24T01:19:31.074Z,0
2018-09-24T01:20:03.160Z,0
2018-09-24T01:20:35.198Z,0
2018-09-24T01:21:07.215Z,0
2018-09-24T01:21:39.261Z,0
2018-09-24T01:22:11.288Z,0
2018-09-24T01:22:43.351Z,0
2018-09-24T01:23:15.433Z,0
2018-09-24T01:23:47.477Z,0
2018-09-24T01:24:19.525Z,0
2018-09-24T01:24:51.610Z,0
2018-09-24T01:25:23.693Z,0
2018-09-24T01:25:56.461Z,0
2018-09-24T01:26:28.524Z,0
2018-09-24T01:27:00.580Z,0
2018-09-24T01:27:32.743Z,0
2018-09-24T01:28:04.798Z,0
2018-09-24T01:28:36.824Z,0
2018-09-24T01:29:08.867Z,0
2018-09-24T01:29:40.937Z,0
2018-09-24T01:30:13.012Z,0
2018-09-24T01:30:45.098Z,0
2018-09-24T01:31:17.168Z,0
2018-09-24T01:31:49.197Z,0
2018-09-24T01:32:21.334Z,0
2018-09-24T01:32:53.425Z,0
2018-09-24T01:33:25.488Z,0
2018-09-24T01:33:57.528Z,0
2018-09-24T01:34:29.544Z,0
2018-09-24T01:35:01.629Z,0
2018-09-24T01:35:33.714Z,0
2018-09-24T01:36:05.840Z,0
2018-09-24T01:36:37.949Z,0
2018-09-24T01:37:09.972Z,0
2018-09-24T01:37:42.006Z,0
2018-09-24T01:38:14.097Z,0
2018-09-24T01:38:46.160Z,0
2018-09-24T01:39:18.211Z,0
2018-09-24T01:39:50.264Z,0
2018-09-24T01:40:22.335Z,0
2018-09-24T01:40:54.371Z,0
2018-09-24T01:41:26.488Z,0
2018-09-24T01:41:58.583Z,0
2018-09-24T01:42:30.620Z,0
2018-09-24T01:43:02.657Z,0
2018-09-24T01:43:34.756Z,0
2018-09-24T01:44:06.748Z,0
2018-09-24T01:44:38.841Z,0
2018-09-24T01:45:10.939Z,0
2018-09-24T01:45:42.992Z,0
2018-09-24T01:46:15.065Z,0
2018-09-24T01:46:47.137Z,0
2018-09-24T01:47:19.268Z,0
2018-09-24T01:47:51.296Z,0
2018-09-24T01:48:23.294Z,0
2018-09-24T01:48:55.308Z,0
2018-09-24T01:49:27.389Z,0
2018-09-24T01:49:59.470Z,0
2018-09-24T01:50:31.543Z,0
2018-09-24T01:51:03.675Z,0
2018-09-24T01:51:35.729Z,0
2018-09-24T01:52:07.794Z,0
2018-09-24T01:52:39.820Z,0
2018-09-24T01:53:11.874Z,0
2018-09-24T01:53:43.925Z,0
2018-09-24T01:54:15.977Z,0
2018-09-24T01:54:48.046Z,0
2018-09-24T01:55:20.114Z,0
2018-09-24T01:55:52.283Z,0
2018-09-24T01:56:24.356Z,0
2018-09-24T01:56:56.406Z,0
2018-09-24T01:57:28.440Z,0
2018-09-24T01:58:00.475Z,0
2018-09-24T01:58:32.525Z,0
2018-09-24T01:59:04.581Z,0
2018-09-24T01:59:36.626Z,0
2018-09-24T02:00:08.715Z,0
2018-09-24T02:00:40.885Z,0
2018-09-24T02:01:12.971Z,0
2018-09-24T02:01:45.026Z,0
2018-09-24T02:02:17.562Z,0
2018-09-24T02:02:49.605Z,0
2018-09-24T02:03:21.655Z,0
2018-09-24T02:03:53.716Z,0
2018-09-24T02:04:25.790Z,0
2018-09-24T02:04:57.870Z,0
2018-09-24T02:05:29.937Z,0
2018-09-24T02:06:02.002Z,0
2018-09-24T02:06:34.043Z,0
2018-09-24T02:07:06.089Z,0
2018-09-24T02:07:38.163Z,0
2018-09-24T02:08:10.205Z,0
2018-09-24T02:08:42.251Z,0
2018-09-24T02:09:14.329Z,0
2018-09-24T02:09:46.384Z,0
2018-09-24T02:10:18.449Z,0
2018-09-24T02:10:50.535Z,0
2018-09-24T02:11:22.594Z,0
2018-09-24T02:11:54.678Z,0
2018-09-24T02:12:26.727Z,0
2018-09-24T02:12:58.914Z,0
2018-09-24T02:13:31.028Z,0
2018-09-24T02:14:03.084Z,0
2018-09-24T02:14:35.141Z,0
2018-09-24T02:15:07.168Z,0
2018-09-24T02:15:39.259Z,0
2018-09-24T02:16:11.292Z,0
2018-09-24T02:16:43.314Z,0
2018-09-24T02:17:15.336Z,0
2018-09-24T02:17:47.404Z,0
2018-09-24T02:18:19.428Z,0
2018-09-24T02:18:51.460Z,0
2018-09-24T02:19:23.633Z,0
2018-09-24T02:19:55.926Z,0
2018-09-24T02:20:28.028Z,0
2018-09-24T02:21:00.083Z,0
2018-09-24T02:21:32.135Z,0
2018-09-24T02:22:04.211Z,0
2018-09-24T02:22:36.219Z,0
2018-09-24T02:23:08.312Z,0
2018-09-24T02:23:40.371Z,0
2018-09-24T02:24:12.350Z,0
2018-09-24T02:24:44.376Z,0
2018-09-24T02:25:16.443Z,0
2018-09-24T02:25:48.492Z,0
2018-09-24T02:26:20.536Z,0
2018-09-24T02:26:52.583Z,0
2018-09-24T02:27:24.650Z,0
2018-09-24T02:27:56.694Z,0
2018-09-24T02:28:28.758Z,0
2018-09-24T02:29:00.911Z,0
2018-09-24T02:29:32.980Z,0
2018-09-24T02:30:05.015Z,0
2018-09-24T02:30:37.086Z,0
2018-09-24T02:31:09.156Z,0
2018-09-24T02:31:41.270Z,0
2018-09-24T02:32:13.349Z,0
2018-09-24T02:32:45.409Z,0
2018-09-24T02:33:17.478Z,0
2018-09-24T02:33:49.529Z,0
2018-09-24T02:34:21.600Z,0
2018-09-24T02:34:53.632Z,0
2018-09-24T02:35:25.721Z,0
2018-09-24T02:35:57.887Z,0
2018-09-24T02:36:30.080Z,0
2018-09-24T02:37:02.167Z,0
2018-09-24T02:37:34.235Z,0
2018-09-24T02:38:06.295Z,0
2018-09-24T02:38:38.346Z,0
2018-09-24T02:39:10.409Z,0
2018-09-24T02:39:42.449Z,0
2018-09-24T02:40:14.479Z,0
2018-09-24T02:40:46.504Z,0
2018-09-24T02:41:18.575Z,0
2018-09-24T02:41:51.229Z,0
2018-09-24T02:42:23.321Z,0
2018-09-24T02:42:55.477Z,0
2018-09-24T02:43:27.545Z,0
2018-09-24T02:43:59.649Z,0
2018-09-24T02:44:31.678Z,0
2018-09-24T02:45:03.725Z,0
2018-09-24T02:45:36.507Z,0
2018-09-24T02:46:08.525Z,0
2018-09-24T02:46:40.558Z,0
2018-09-24T02:47:12.670Z,0
2018-09-24T02:47:44.749Z,0
2018-09-24T02:48:16.767Z,0
2018-09-24T02:48:48.823Z,0
2018-09-24T02:49:20.845Z,0
2018-09-24T02:49:52.921Z,0
2018-09-24T02:50:24.927Z,0
2018-09-24T02:50:57.001Z,0
2018-09-24T02:51:29.040Z,0
2018-09-24T02:52:01.052Z,0
2018-09-24T02:52:34.045Z,0
2018-09-24T02:53:06.119Z,0
2018-09-24T02:53:38.154Z,0
2018-09-24T02:54:10.185Z,0
2018-09-24T02:54:42.256Z,0
2018-09-24T02:55:14.374Z,0
2018-09-24T02:55:46.451Z,0
2018-09-24T02:56:18.497Z,0
2018-09-24T02:56:50.572Z,0
2018-09-24T02:57:22.584Z,0
2018-09-24T02:57:54.660Z,0
2018-09-24T02:58:26.735Z,0
2018-09-24T02:58:58.831Z,0
2018-09-24T02:59:30.881Z,0
2018-09-24T03:00:02.962Z,0
2018-09-24T03:00:34.986Z,0
2018-09-24T03:01:07.107Z,0
2018-09-24T03:01:39.142Z,0
2018-09-24T03:02:11.277Z,0
2018-09-24T03:02:43.360Z,0
2018-09-24T03:03:15.403Z,0
2018-09-24T03:03:47.486Z,0
2018-09-24T03:04:19.542Z,0
2018-09-24T03:04:51.612Z,0
2018-09-24T03:05:23.657Z,0
2018-09-24T03:05:55.683Z,0
2018-09-24T03:06:27.756Z,0
2018-09-24T03:06:59.832Z,0
2018-09-24T03:07:31.879Z,0
2018-09-24T03:08:03.966Z,0
2018-09-24T03:08:36.039Z,0
2018-09-24T03:09:08.130Z,0
2018-09-24T03:09:40.210Z,0
2018-09-24T03:10:12.289Z,0
2018-09-24T03:10:44.368Z,0
2018-09-24T03:11:16.448Z,0
2018-09-24T03:11:48.487Z,0
2018-09-24T03:12:20.501Z,0
2018-09-24T03:12:52.543Z,0
2018-09-24T03:13:24.562Z,0
2018-09-24T03:13:56.632Z,0
2018-09-24T03:14:29.305Z,0
2018-09-24T03:15:01.379Z,0
2018-09-24T03:15:33.452Z,0
2018-09-24T03:16:05.529Z,0
2018-09-24T03:16:37.594Z,0
2018-09-24T03:17:09.674Z,0
2018-09-24T03:17:41.726Z,0
2018-09-24T03:18:13.785Z,0
2018-09-24T03:18:45.865Z,0
2018-09-24T03:19:17.961Z,0
2018-09-24T03:19:49.978Z,0
2018-09-24T03:20:22.096Z,0
2018-09-24T03:20:54.175Z,0
2018-09-24T03:21:26.225Z,0
2018-09-24T03:21:58.313Z,0
2018-09-24T03:22:30.380Z,0
2018-09-24T03:23:02.437Z,0
2018-09-24T03:23:34.507Z,0
2018-09-24T03:24:06.592Z,0
2018-09-24T03:24:38.764Z,0
2018-09-24T03:25:10.849Z,0
2018-09-24T03:25:42.926Z,0
2018-09-24T03:26:15.096Z,0
2018-09-24T03:26:47.099Z,0
2018-09-24T03:27:19.183Z,0
2018-09-24T03:27:51.252Z,0
2018-09-24T03:28:23.330Z,0
2018-09-24T03:28:55.386Z,0
2018-09-24T03:29:27.509Z,0
2018-09-24T03:29:59.562Z,0
2018-09-24T03:30:31.644Z,0
2018-09-24T03:31:03.702Z,0
2018-09-24T03:31:35.731Z,0
2018-09-24T03:32:07.812Z,0
2018-09-24T03:32:39.866Z,0
2018-09-24T03:33:11.899Z,0
2018-09-24T03:33:43.927Z,0
2018-09-24T03:34:15.985Z,0
2018-09-24T03:34:48.041Z,0
2018-09-24T03:35:20.123Z,0
2018-09-24T03:35:52.123Z,0
2018-09-24T03:36:24.178Z,0
2018-09-24T03:36:56.234Z,0
2018-09-24T03:37:28.354Z,0
2018-09-24T03:38:00.415Z,0
2018-09-24T03:38:32.498Z,0
2018-09-24T03:39:04.553Z,0
2018-09-24T03:39:36.619Z,0
2018-09-24T03:40:08.620Z,0
2018-09-24T03:40:40.680Z,0
2018-09-24T03:41:12.763Z,0
2018-09-24T03:41:44.928Z,0
2018-09-24T03:42:16.925Z,0
2018-09-24T03:42:48.988Z,0
2018-09-24T03:43:21.053Z,0
2018-09-24T03:43:53.080Z,0
2018-09-24T03:44:25.158Z,0
2018-09-24T03:44:57.249Z,0
2018-09-24T03:45:29.334Z,0
2018-09-24T03:46:01.394Z,0
2018-09-24T03:46:33.464Z,0
2018-09-24T03:47:05.488Z,0
2018-09-24T03:47:37.617Z,0
2018-09-24T03:48:10.534Z,0
2018-09-24T03:48:42.582Z,0
2018-09-24T03:49:14.607Z,0
2018-09-24T03:49:46.631Z,0
2018-09-24T03:50:18.740Z,0
2018-09-24T03:50:50.803Z,0
2018-09-24T03:51:22.875Z,0
2018-09-24T03:51:54.932Z,0
2018-09-24T03:52:26.981Z,0
2018-09-24T03:52:59.098Z,0
2018-09-24T03:53:31.257Z,0
2018-09-24T03:54:03.338Z,0
2018-09-24T03:54:35.413Z,0
2018-09-24T03:55:07.395Z,0
2018-09-24T03:55:39.467Z,0
2018-09-24T03:56:11.629Z,0
2018-09-24T03:56:43.811Z,0
2018-09-24T03:57:15.849Z,0
2018-09-24T03:57:47.953Z,0
2018-09-24T03:58:19.976Z,0
2018-09-24T03:58:52.152Z,0
2018-09-24T03:59:24.184Z,0
2018-09-24T03:59:56.303Z,0
2018-09-24T04:00:28.417Z,0
2018-09-24T04:01:00.501Z,0
2018-09-24T04:01:32.562Z,0
2018-09-24T04:02:04.635Z,0
2018-09-24T04:02:37.355Z,0
2018-09-24T04:03:09.393Z,0
2018-09-24T04:03:41.521Z,0
2018-09-24T04:04:13.575Z,0
2018-09-24T04:04:45.594Z,0
2018-09-24T04:05:17.722Z,0
2018-09-24T04:05:49.749Z,0
2018-09-24T04:06:21.840Z,0
2018-09-24T04:06:53.902Z,0
2018-09-24T04:07:25.923Z,0
2018-09-24T04:07:57.970Z,0
2018-09-24T04:08:30.036Z,0
2018-09-24T04:09:02.110Z,0
2018-09-24T04:09:34.276Z,0
2018-09-24T04:10:06.405Z,0
2018-09-24T04:10:38.852Z,0
2018-09-24T04:11:10.919Z,0
2018-09-24T04:11:42.991Z,0
2018-09-24T04:12:15.143Z,0
2018-09-24T04:12:47.200Z,0
2018-09-24T04:13:19.260Z,0
2018-09-24T04:13:51.315Z,0
2018-09-24T04:14:23.473Z,0
2018-09-24T04:14:55.540Z,0
2018-09-24T04:15:27.595Z,0
2018-09-24T04:15:59.630Z,0
2018-09-24T04:16:31.680Z,0
2018-09-24T04:17:03.744Z,0
2018-09-24T04:17:35.792Z,0
2018-09-24T04:18:07.862Z,0
2018-09-24T04:18:39.924Z,0
2018-09-24T04:19:12.003Z,0
2018-09-24T04:19:44.085Z,0
2018-09-24T04:20:16.151Z,0
2018-09-24T04:20:48.216Z,0
2018-09-24T04:21:20.265Z,0
2018-09-24T04:21:52.367Z,0
2018-09-24T04:22:24.425Z,0
2018-09-24T04:22:56.485Z,0
2018-09-24T04:23:28.541Z,0
2018-09-24T04:24:00.590Z,0
2018-09-24T04:24:32.632Z,0
2018-09-24T04:25:04.706Z,0
2018-09-24T04:25:36.770Z,0
2018-09-24T04:26:08.883Z,0
2018-09-24T04:26:40.904Z,0
2018-09-24T04:27:13.064Z,0
2018-09-24T04:27:45.087Z,0
2018-09-24T04:28:17.146Z,0
2018-09-24T04:28:49.210Z,0
2018-09-24T04:29:21.246Z,0
2018-09-24T04:29:54.065Z,0
2018-09-24T04:30:26.138Z,0
2018-09-24T04:30:58.242Z,0
2018-09-24T04:31:30.305Z,0
2018-09-24T04:32:02.338Z,0
2018-09-24T04:32:34.406Z,0
2018-09-24T04:33:06.454Z,0
2018-09-24T04:33:38.485Z,0
2018-09-24T04:34:10.559Z,0
2018-09-24T04:34:42.609Z,0
2018-09-24T04:35:14.673Z,0
2018-09-24T04:35:46.706Z,0
2018-09-24T04:36:18.908Z,0
2018-09-24T04:36:50.945Z,0
2018-09-24T04:37:22.978Z,0
2018-09-24T04:37:55.015Z,0
2018-09-24T04:38:27.063Z,0
2018-09-24T04:38:59.123Z,0
2018-09-24T04:39:31.401Z,0
2018-09-24T04:40:03.429Z,0
2018-09-24T04:40:35.446Z,0
2018-09-24T04:41:07.530Z,0
2018-09-24T04:41:39.603Z,0
2018-09-24T04:42:11.682Z,0
2018-09-24T04:42:43.711Z,0
2018-09-24T04:43:15.791Z,0
2018-09-24T04:43:47.874Z,0
2018-09-24T04:44:19.915Z,0
2018-09-24T04:44:52.085Z,0
2018-09-24T04:45:24.230Z,0
2018-09-24T04:45:56.387Z,0
2018-09-24T04:46:28.415Z,0
2018-09-24T04:47:00.478Z,0
2018-09-24T04:47:32.545Z,0
2018-09-24T04:48:04.587Z,0
2018-09-24T04:48:36.648Z,0
2018-09-24T04:49:08.842Z,0
2018-09-24T04:49:40.911Z,0
2018-09-24T04:50:12.929Z,0
2018-09-24T04:50:45.022Z,0
2018-09-24T04:51:17.075Z,0
2018-09-24T04:51:49.136Z,0
2018-09-24T04:52:21.220Z,0
2018-09-24T04:52:53.241Z,0
2018-09-24T04:53:25.255Z,0
2018-09-24T04:53:57.280Z,0
2018-09-24T04:54:29.354Z,0
2018-09-24T04:55:01.445Z,0
2018-09-24T04:55:33.506Z,0
2018-09-24T04:56:05.556Z,0
2018-09-24T04:56:37.568Z,0
2018-09-24T04:57:09.631Z,0
2018-09-24T04:57:41.694Z,0
2018-09-24T04:58:13.778Z,0
2018-09-24T04:58:46.091Z,0
2018-09-24T04:59:18.103Z,0
2018-09-24T04:59:50.277Z,0
2018-09-24T05:00:22.330Z,0
2018-09-24T05:00:54.337Z,0
2018-09-24T05:01:26.391Z,0
2018-09-24T05:01:58.452Z,0
2018-09-24T05:02:30.517Z,0
2018-09-24T05:03:02.584Z,0
2018-09-24T05:03:34.622Z,0
2018-09-24T05:04:06.678Z,0
2018-09-24T05:04:38.710Z,0
2018-09-24T05:05:10.801Z,0
2018-09-24T05:05:42.852Z,0
2018-09-24T05:06:14.929Z,0
2018-09-24T05:06:47.005Z,0
2018-09-24T05:07:19.664Z,0
2018-09-24T05:07:51.751Z,0
2018-09-24T05:08:23.836Z,0
2018-09-24T05:08:55.893Z,0
2018-09-24T05:09:27.963Z,0
2018-09-24T05:10:00.020Z,0
2018-09-24T05:10:32.153Z,0
2018-09-24T05:11:04.264Z,0
2018-09-24T05:11:36.279Z,0
2018-09-24T05:12:08.340Z,0
2018-09-24T05:12:40.385Z,0
2018-09-24T05:13:12.416Z,0
2018-09-24T05:13:44.525Z,0
2018-09-24T05:14:16.595Z,0
2018-09-24T05:14:48.626Z,0
2018-09-24T05:15:20.645Z,0
2018-09-24T05:15:52.771Z,0
2018-09-24T05:16:24.866Z,0
2018-09-24T05:16:56.918Z,0
2018-09-24T05:17:28.946Z,0
2018-09-24T05:18:00.984Z,0
2018-09-24T05:18:33.073Z,0
2018-09-24T05:19:05.105Z,0
2018-09-24T05:19:37.157Z,0
2018-09-24T05:20:09.282Z,0
2018-09-24T05:20:41.281Z,5
2018-09-24T05:21:13.333Z,5
2018-09-24T05:21:45.388Z,5
2018-09-24T05:22:17.460Z,5
2018-09-24T05:22:49.489Z,5
2018-09-24T05:23:21.558Z,5
2018-09-24T05:23:53.589Z,5
2018-09-24T05:24:25.647Z,5
2018-09-24T05:24:57.752Z,5
2018-09-24T05:25:29.790Z,5
2018-09-24T05:26:01.837Z,5
2018-09-24T05:26:33.880Z,5
2018-09-24T05:27:05.981Z,5
2018-09-24T05:27:38.238Z,5
2018-09-24T05:28:10.316Z,5
2018-09-24T05:28:42.345Z,5
2018-09-24T05:29:14.470Z,5
2018-09-24T05:29:46.475Z,5
2018-09-24T05:30:18.507Z,5
2018-09-24T05:30:50.660Z,5
2018-09-24T05:31:22.856Z,10
2018-09-24T05:31:54.943Z,10
2018-09-24T05:32:27.156Z,10
2018-09-24T05:32:59.185Z,10
2018-09-24T05:33:31.353Z,10
2018-09-24T05:34:03.574Z,10
2018-09-24T05:34:35.678Z,10
2018-09-24T05:35:07.683Z,10
2018-09-24T05:35:39.724Z,10
2018-09-24T05:36:11.758Z,10
2018-09-24T05:36:43.897Z,10
2018-09-24T05:37:16.048Z,10
2018-09-24T05:37:48.109Z,10
2018-09-24T05:38:20.201Z,10
2018-09-24T05:38:52.227Z,10
2018-09-24T05:39:24.309Z,10
2018-09-24T05:39:56.331Z,10
2018-09-24T05:40:28.389Z,10
2018-09-24T05:41:00.461Z,15
2018-09-24T05:41:32.484Z,15
2018-09-24T05:42:04.522Z,15
2018-09-24T05:42:36.570Z,15
2018-09-24T05:43:08.648Z,15
2018-09-24T05:43:40.687Z,15
2018-09-24T05:44:12.771Z,15
2018-09-24T05:44:44.828Z,15
2018-09-24T05:45:16.890Z,15
2018-09-24T05:45:48.947Z,15
2018-09-24T05:46:21.027Z,15
2018-09-24T05:46:53.056Z,15
2018-09-24T05:47:25.195Z,15
2018-09-24T05:47:57.342Z,15
2018-09-24T05:48:29.375Z,15
2018-09-24T05:49:01.401Z,15
2018-09-24T05:49:33.471Z,15
2018-09-24T05:50:05.613Z,15
2018-09-24T05:50:37.790Z,15
2018-09-24T05:51:09.963Z,20
2018-09-24T05:51:42.083Z,20
2018-09-24T05:52:14.140Z,20
2018-09-24T05:52:46.170Z,20
2018-09-24T05:53:18.177Z,20
2018-09-24T05:53:50.250Z,20
2018-09-24T05:54:22.456Z,20
2018-09-24T05:54:54.562Z,20
2018-09-24T05:55:26.696Z,20
2018-09-24T05:55:58.924Z,20
2018-09-24T05:56:31.006Z,20
2018-09-24T05:57:03.066Z,20
2018-09-24T05:57:35.095Z,20
2018-09-24T05:58:07.163Z,20
2018-09-24T05:58:39.215Z,20
2018-09-24T05:59:11.360Z,20
2018-09-24T05:59:43.434Z,25
2018-09-24T06:00:15.487Z,25
2018-09-24T06:00:47.557Z,25
2018-09-24T06:01:19.585Z,25
2018-09-24T06:01:51.633Z,25
2018-09-24T06:02:23.692Z,30
2018-09-24T06:02:55.738Z,30
2018-09-24T06:03:27.803Z,35
2018-09-24T06:03:59.830Z,40
2018-09-24T06:04:32.039Z,45
2018-09-24T06:05:04.085Z,45
2018-09-24T06:05:36.112Z,45
2018-09-24T06:06:08.152Z,50
2018-09-24T06:06:40.249Z,50
2018-09-24T06:07:12.216Z,50
2018-09-24T06:07:44.272Z,50
2018-09-24T06:08:16.386Z,50
2018-09-24T06:08:48.469Z,50
2018-09-24T06:09:20.553Z,50
2018-09-24T06:09:52.595Z,50
2018-09-24T06:10:24.670Z,50
2018-09-24T06:10:56.728Z,55
2018-09-24T06:11:28.747Z,55
2018-09-24T06:12:00.804Z,50
2018-09-24T06:12:32.870Z,50
2018-09-24T06:13:04.995Z,50
2018-09-24T06:13:37.190Z,50
2018-09-24T06:14:09.236Z,30
2018-09-24T06:14:41.303Z,25
2018-09-24T06:15:13.353Z,40
2018-09-24T06:15:45.384Z,45
2018-09-24T06:16:17.415Z,45
2018-09-24T06:16:49.583Z,30
2018-09-24T06:17:21.619Z,30
2018-09-24T06:17:54.495Z,30
2018-09-24T06:18:26.596Z,30
2018-09-24T06:18:58.743Z,30
2018-09-24T06:19:30.731Z,30
2018-09-24T06:20:02.738Z,45
2018-09-24T06:20:34.770Z,60
2018-09-24T06:21:06.792Z,60
2018-09-24T06:21:38.965Z,60
2018-09-24T06:22:11.851Z,60
2018-09-24T06:22:43.966Z,60
2018-09-24T06:23:15.986Z,65
2018-09-24T06:23:48.040Z,40
2018-09-24T06:24:20.079Z,50
2018-09-24T06:24:52.216Z,50
2018-09-24T06:25:24.377Z,35
2018-09-24T06:25:56.514Z,30
2018-09-24T06:26:28.557Z,30
2018-09-24T06:27:00.701Z,30
2018-09-24T06:27:32.747Z,30
2018-09-24T06:28:04.824Z,30
2018-09-24T06:28:36.948Z,30
2018-09-24T06:29:08.937Z,30
2018-09-24T06:29:41.003Z,30
2018-09-24T06:30:13.056Z,30
2018-09-24T06:30:45.103Z,35
2018-09-24T06:31:17.801Z,60
2018-09-24T06:31:49.901Z,75
2018-09-24T06:32:21.962Z,75
2018-09-24T06:32:54.046Z,75
2018-09-24T06:33:26.112Z,75
2018-09-24T06:33:58.145Z,70
2018-09-24T06:34:30.218Z,75
2018-09-24T06:35:02.282Z,75
2018-09-24T06:35:34.338Z,80
2018-09-24T06:36:06.370Z,70
2018-09-24T06:36:38.416Z,75
2018-09-24T06:37:10.524Z,40
2018-09-24T06:37:42.628Z,35
2018-09-24T06:38:15.294Z,40
2018-09-24T06:38:47.465Z,40
2018-09-24T06:39:19.554Z,80
2018-09-24T06:39:51.625Z,80
2018-09-24T06:40:23.681Z,80
2018-09-24T06:40:55.728Z,80
2018-09-24T06:41:27.722Z,60
2018-09-24T06:41:59.803Z,45
2018-09-24T06:42:31.876Z,45
2018-09-24T06:43:03.930Z,75
2018-09-24T06:43:35.963Z,90
2018-09-24T06:44:08.017Z,90
2018-09-24T06:44:40.113Z,90
2018-09-24T06:45:12.376Z,90
2018-09-24T06:45:44.475Z,90
2018-09-24T06:46:16.515Z,90
2018-09-24T06:46:49.336Z,85
2018-09-24T06:47:21.381Z,90
2018-09-24T06:47:53.453Z,90
2018-09-24T06:48:25.504Z,90
2018-09-24T06:48:57.559Z,90
2018-09-24T06:49:29.588Z,90
2018-09-24T06:50:01.644Z,95
2018-09-24T06:50:33.780Z,105
2018-09-24T06:51:05.866Z,110
2018-09-24T06:51:37.927Z,110
2018-09-24T06:52:09.964Z,110
2018-09-24T06:52:42.039Z,105
2018-09-24T06:53:14.100Z,100
2018-09-24T06:53:46.102Z,95
2018-09-24T06:54:18.160Z,90
2018-09-24T06:54:50.183Z,55
2018-09-24T06:55:22.287Z,80
2018-09-24T06:55:54.340Z,65
2018-09-24T06:56:26.437Z,50
2018-09-24T06:56:58.473Z,45
2018-09-24T06:57:30.607Z,55
2018-09-24T06:58:02.600Z,55
2018-09-24T06:58:34.910Z,45
2018-09-24T06:59:07.042Z,50
2018-09-24T06:59:39.178Z,95
2018-09-24T07:00:11.249Z,95
2018-09-24T07:00:43.368Z,95
2018-09-24T07:01:15.450Z,95
2018-09-24T07:01:47.504Z,95
2018-09-24T07:02:19.608Z,95
2018-09-24T07:02:51.700Z,95
2018-09-24T07:03:23.733Z,100
2018-09-24T07:03:55.895Z,100
2018-09-24T07:04:28.192Z,100
2018-09-24T07:05:00.294Z,100
2018-09-24T07:05:32.468Z,100
2018-09-24T07:06:04.454Z,100
2018-09-24T07:06:36.669Z,100
2018-09-24T07:07:08.737Z,100
2018-09-24T07:07:40.756Z,100
2018-09-24T07:08:12.840Z,105
2018-09-24T07:08:45.008Z,105
2018-09-24T07:09:17.062Z,105
2018-09-24T07:09:49.140Z,100
2018-09-24T07:10:21.245Z,100
2018-09-24T07:10:53.318Z,50
2018-09-24T07:11:25.787Z,105
2018-09-24T07:11:57.757Z,105
2018-09-24T07:12:29.832Z,105
2018-09-24T07:13:01.849Z,110
2018-09-24T07:13:33.906Z,105
2018-09-24T07:14:06.613Z,105
2018-09-24T07:14:38.699Z,105
2018-09-24T07:15:10.716Z,105
2018-09-24T07:15:42.775Z,105
2018-09-24T07:16:14.876Z,105
2018-09-24T07:16:46.887Z,105
2018-09-24T07:17:18.939Z,105
2018-09-24T07:17:51.000Z,105
2018-09-24T07:18:23.067Z,105
2018-09-24T07:18:55.111Z,105
2018-09-24T07:19:27.473Z,110
2018-09-24T07:19:59.466Z,110
2018-09-24T07:20:31.558Z,110
2018-09-24T07:21:03.606Z,110
2018-09-24T07:21:36.079Z,110
2018-09-24T07:22:08.028Z,110
2018-09-24T07:22:40.071Z,110
2018-09-24T07:23:12.103Z,110
2018-09-24T07:23:44.144Z,110
2018-09-24T07:24:16.154Z,110
2018-09-24T07:24:48.186Z,110
2018-09-24T07:25:20.282Z,110
2018-09-24T07:25:52.356Z,110
2018-09-24T07:26:24.516Z,110
2018-09-24T07:26:56.570Z,110
2018-09-24T07:27:28.714Z,110
2018-09-24T07:28:00.988Z,110
2018-09-24T07:28:32.980Z,115
2018-09-24T07:29:05.002Z,115
2018-09-24T07:29:37.084Z,115
2018-09-24T07:30:09.142Z,115
2018-09-24T07:30:41.185Z,115
2018-09-24T07:31:13.233Z,115
2018-09-24T07:31:45.284Z,115
2018-09-24T07:32:17.312Z,115
2018-09-24T07:32:49.346Z,115
2018-09-24T07:33:21.475Z,115
2018-09-24T07:33:53.519Z,115
2018-09-24T07:34:25.591Z,115
2018-09-24T07:34:57.661Z,115
2018-09-24T07:35:29.694Z,115
2018-09-24T07:36:01.708Z,115
2018-09-24T07:36:33.681Z,115
2018-09-24T07:37:05.724Z,115
2018-09-24T07:37:37.774Z,115
2018-09-24T07:38:09.864Z,115
2018-09-24T07:38:42.030Z,115
2018-09-24T07:39:14.133Z,115
2018-09-24T07:39:46.130Z,115
2018-09-24T07:40:18.167Z,115
2018-09-24T07:40:50.248Z,115
2018-09-24T07:41:22.333Z,115
2018-09-24T07:41:54.377Z,115
2018-09-24T07:42:26.457Z,115
2018-09-24T07:42:58.533Z,115
2018-09-24T07:43:30.672Z,115
2018-09-24T07:44:02.689Z,115
2018-09-24T07:44:34.744Z,115
2018-09-24T07:45:06.761Z,115
2018-09-24T07:45:38.833Z,115
2018-09-24T07:46:10.842Z,115
2018-09-24T07:46:42.872Z,115
2018-09-24T07:47:14.917Z,115
2018-09-24T07:47:47.025Z,115